sensor_id;sensor_type;location;lat;lon;timestamp;temperature;humidity
10980;DHT22;5543;51.734;8.744;2023-05-10T00:02:08;14.90;99.90
10980;DHT22;5543;51.734;8.744;2023-05-10T00:04:36;14.90;99.90
10980;DHT22;5543;51.734;8.744;2023-05-10T00:07:06;14.90;99.90
10980;DHT22;5543;51.734;8.744;2023-05-10T00:09:34;15.00;99.90
10980;DHT22;5543;51.734;8.744;2023-05-10T00:12:02;14.90;99.90
10980;DHT22;5543;51.734;8.744;2023-05-10T00:14:30;14.90;99.90
10980;DHT22;5543;51.734;8.744;2023-05-10T00:16:58;14.90;99.90
10980;DHT22;5543;51.734;8.744;2023-05-10T00:19:26;14.90;99.90
10980;DHT22;5543;51.734;8.744;2023-05-10T00:21:54;14.90;99.90
10980;DHT22;5543;51.734;8.744;2023-05-10T00:24:24;14.80;99.90
10980;DHT22;5543;51.734;8.744;2023-05-10T00:26:52;14.80;99.90
10980;DHT22;5543;51.734;8.744;2023-05-10T00:29:20;14.80;99.90
10980;DHT22;5543;51.734;8.744;2023-05-10T00:31:48;14.80;99.90
10980;DHT22;5543;51.734;8.744;2023-05-10T00:34:16;14.80;99.90
10980;DHT22;5543;51.734;8.744;2023-05-10T00:36:44;14.80;99.90
10980;DHT22;5543;51.734;8.744;2023-05-10T00:39:12;14.80;99.90
10980;DHT22;5543;51.734;8.744;2023-05-10T00:41:41;14.80;99.90
10980;DHT22;5543;51.734;8.744;2023-05-10T00:44:09;14.80;99.90
10980;DHT22;5543;51.734;8.744;2023-05-10T00:46:37;14.80;99.90
10980;DHT22;5543;51.734;8.744;2023-05-10T00:49:06;14.80;99.90
10980;DHT22;5543;51.734;8.744;2023-05-10T00:51:34;14.80;99.90
10980;DHT22;5543;51.734;8.744;2023-05-10T00:54:03;14.80;99.90
10980;DHT22;5543;51.734;8.744;2023-05-10T00:56:31;14.80;99.90
10980;DHT22;5543;51.734;8.744;2023-05-10T00:59:01;14.80;99.90
10980;DHT22;5543;51.734;8.744;2023-05-10T01:01:30;14.70;99.90
10980;DHT22;5543;51.734;8.744;2023-05-10T01:03:59;14.80;99.90
10980;DHT22;5543;51.734;8.744;2023-05-10T01:06:27;14.80;99.90
10980;DHT22;5543;51.734;8.744;2023-05-10T01:12:52;14.80;99.90
10980;DHT22;5543;51.734;8.744;2023-05-10T01:15:21;14.80;99.90
10980;DHT22;5543;51.734;8.744;2023-05-10T01:17:50;14.80;99.90
10980;DHT22;5543;51.734;8.744;2023-05-10T01:20:19;14.80;99.90
10980;DHT22;5543;51.734;8.744;2023-05-10T01:23:30;14.80;99.90
10980;DHT22;5543;51.734;8.744;2023-05-10T01:26:14;14.70;99.90
10980;DHT22;5543;51.734;8.744;2023-05-10T01:29:14;14.60;99.90
10980;DHT22;5543;51.734;8.744;2023-05-10T01:32:09;14.60;99.90
10980;DHT22;5543;51.734;8.744;2023-05-10T01:34:45;14.60;99.90
10980;DHT22;5543;51.734;8.744;2023-05-10T01:37:18;14.60;99.90
10980;DHT22;5543;51.734;8.744;2023-05-10T01:39:52;14.50;99.90
10980;DHT22;5543;51.734;8.744;2023-05-10T01:42:26;14.50;99.90
10980;DHT22;5543;51.734;8.744;2023-05-10T01:45:02;14.40;99.90
10980;DHT22;5543;51.734;8.744;2023-05-10T01:47:37;14.40;99.90
10980;DHT22;5543;51.734;8.744;2023-05-10T01:50:10;14.40;99.90
10980;DHT22;5543;51.734;8.744;2023-05-10T01:52:42;14.40;99.90
10980;DHT22;5543;51.734;8.744;2023-05-10T01:55:14;14.40;99.90
10980;DHT22;5543;51.734;8.744;2023-05-10T01:57:44;14.30;99.90
10980;DHT22;5543;51.734;8.744;2023-05-10T02:00:13;14.10;99.90
10980;DHT22;5543;51.734;8.744;2023-05-10T02:02:46;14.00;99.90
10980;DHT22;5543;51.734;8.744;2023-05-10T02:05:16;14.00;99.90
10980;DHT22;5543;51.734;8.744;2023-05-10T02:07:45;13.90;99.90
10980;DHT22;5543;51.734;8.744;2023-05-10T02:10:14;13.90;99.90
10980;DHT22;5543;51.734;8.744;2023-05-10T02:12:46;13.90;99.90
10980;DHT22;5543;51.734;8.744;2023-05-10T02:15:19;13.80;99.90
10980;DHT22;5543;51.734;8.744;2023-05-10T02:17:50;13.80;99.90
10980;DHT22;5543;51.734;8.744;2023-05-10T02:20:19;13.80;99.90
10980;DHT22;5543;51.734;8.744;2023-05-10T02:22:49;13.70;99.90
10980;DHT22;5543;51.734;8.744;2023-05-10T02:25:19;13.70;99.90
10980;DHT22;5543;51.734;8.744;2023-05-10T02:27:50;13.70;99.90
10980;DHT22;5543;51.734;8.744;2023-05-10T02:30:19;13.70;99.90
10980;DHT22;5543;51.734;8.744;2023-05-10T02:32:50;13.70;99.90
10980;DHT22;5543;51.734;8.744;2023-05-10T02:35:19;13.60;99.90
10980;DHT22;5543;51.734;8.744;2023-05-10T02:37:48;13.50;99.90
10980;DHT22;5543;51.734;8.744;2023-05-10T02:40:19;13.60;99.90
10980;DHT22;5543;51.734;8.744;2023-05-10T02:42:50;13.50;99.90
10980;DHT22;5543;51.734;8.744;2023-05-10T02:45:23;13.50;99.90
10980;DHT22;5543;51.734;8.744;2023-05-10T02:47:55;13.50;99.90
10980;DHT22;5543;51.734;8.744;2023-05-10T02:50:27;13.50;99.90
10980;DHT22;5543;51.734;8.744;2023-05-10T02:53:00;13.50;99.90
10980;DHT22;5543;51.734;8.744;2023-05-10T02:55:40;13.50;99.90
10980;DHT22;5543;51.734;8.744;2023-05-10T02:58:08;13.70;99.90
10980;DHT22;5543;51.734;8.744;2023-05-10T03:00:36;13.50;99.90
10980;DHT22;5543;51.734;8.744;2023-05-10T03:03:06;13.40;99.90
10980;DHT22;5543;51.734;8.744;2023-05-10T03:05:35;13.50;99.90
10980;DHT22;5543;51.734;8.744;2023-05-10T03:08:03;13.50;99.90
10980;DHT22;5543;51.734;8.744;2023-05-10T03:10:35;13.50;99.90
10980;DHT22;5543;51.734;8.744;2023-05-10T03:13:10;13.40;99.90
10980;DHT22;5543;51.734;8.744;2023-05-10T03:15:49;13.50;99.90
10980;DHT22;5543;51.734;8.744;2023-05-10T03:18:28;13.40;99.90
10980;DHT22;5543;51.734;8.744;2023-05-10T03:20:59;13.40;99.90
10980;DHT22;5543;51.734;8.744;2023-05-10T03:23:34;13.50;99.90
10980;DHT22;5543;51.734;8.744;2023-05-10T03:26:02;13.40;99.90
10980;DHT22;5543;51.734;8.744;2023-05-10T03:28:34;13.40;99.90
10980;DHT22;5543;51.734;8.744;2023-05-10T03:31:02;13.50;99.90
10980;DHT22;5543;51.734;8.744;2023-05-10T03:33:33;13.40;99.90
10980;DHT22;5543;51.734;8.744;2023-05-10T03:36:01;13.40;99.90
10980;DHT22;5543;51.734;8.744;2023-05-10T03:38:29;13.40;99.90
10980;DHT22;5543;51.734;8.744;2023-05-10T03:40:57;13.40;99.90
10980;DHT22;5543;51.734;8.744;2023-05-10T03:43:25;13.40;99.90
10980;DHT22;5543;51.734;8.744;2023-05-10T03:45:53;13.40;99.90
10980;DHT22;5543;51.734;8.744;2023-05-10T03:48:23;13.40;99.90
10980;DHT22;5543;51.734;8.744;2023-05-10T03:50:52;13.40;99.90
10980;DHT22;5543;51.734;8.744;2023-05-10T03:53:20;13.40;99.90
10980;DHT22;5543;51.734;8.744;2023-05-10T03:55:49;13.40;99.90
10980;DHT22;5543;51.734;8.744;2023-05-10T03:58:17;13.40;99.90
10980;DHT22;5543;51.734;8.744;2023-05-10T04:00:46;13.40;99.90
10980;DHT22;5543;51.734;8.744;2023-05-10T04:03:14;13.40;99.90
10980;DHT22;5543;51.734;8.744;2023-05-10T04:05:42;13.40;99.90
10980;DHT22;5543;51.734;8.744;2023-05-10T04:08:11;13.40;99.90
10980;DHT22;5543;51.734;8.744;2023-05-10T04:10:41;13.40;99.90
10980;DHT22;5543;51.734;8.744;2023-05-10T04:13:09;13.30;99.90
10980;DHT22;5543;51.734;8.744;2023-05-10T04:15:37;13.40;99.90
10980;DHT22;5543;51.734;8.744;2023-05-10T04:18:06;13.40;99.90
10980;DHT22;5543;51.734;8.744;2023-05-10T04:20:34;13.30;99.90
10980;DHT22;5543;51.734;8.744;2023-05-10T04:23:05;13.40;99.90
10980;DHT22;5543;51.734;8.744;2023-05-10T04:25:35;13.40;99.90
10980;DHT22;5543;51.734;8.744;2023-05-10T04:28:03;13.40;99.90
10980;DHT22;5543;51.734;8.744;2023-05-10T04:30:31;13.40;99.90
10980;DHT22;5543;51.734;8.744;2023-05-10T04:33:00;13.40;99.90
10980;DHT22;5543;51.734;8.744;2023-05-10T04:35:28;13.40;99.90
10980;DHT22;5543;51.734;8.744;2023-05-10T04:37:57;13.40;99.90
10980;DHT22;5543;51.734;8.744;2023-05-10T04:40:25;13.30;99.90
10980;DHT22;5543;51.734;8.744;2023-05-10T04:42:55;13.30;99.90
10980;DHT22;5543;51.734;8.744;2023-05-10T04:45:23;13.30;99.90
10980;DHT22;5543;51.734;8.744;2023-05-10T04:47:51;13.40;99.90
10980;DHT22;5543;51.734;8.744;2023-05-10T04:50:19;13.40;99.90
10980;DHT22;5543;51.734;8.744;2023-05-10T04:52:47;13.30;99.90
10980;DHT22;5543;51.734;8.744;2023-05-10T04:55:15;13.30;99.90
10980;DHT22;5543;51.734;8.744;2023-05-10T04:57:43;13.30;99.90
10980;DHT22;5543;51.734;8.744;2023-05-10T05:00:14;13.30;99.90
10980;DHT22;5543;51.734;8.744;2023-05-10T05:02:43;13.30;99.90
10980;DHT22;5543;51.734;8.744;2023-05-10T05:05:12;13.30;99.90
10980;DHT22;5543;51.734;8.744;2023-05-10T05:07:40;13.30;99.90
10980;DHT22;5543;51.734;8.744;2023-05-10T05:10:09;13.30;99.90
10980;DHT22;5543;51.734;8.744;2023-05-10T05:12:37;13.30;99.90
10980;DHT22;5543;51.734;8.744;2023-05-10T05:15:06;13.30;99.90
10980;DHT22;5543;51.734;8.744;2023-05-10T05:17:37;13.30;99.90
10980;DHT22;5543;51.734;8.744;2023-05-10T05:20:06;13.30;99.90
10980;DHT22;5543;51.734;8.744;2023-05-10T05:22:35;13.40;99.90
10980;DHT22;5543;51.734;8.744;2023-05-10T05:25:04;13.30;99.90
10980;DHT22;5543;51.734;8.744;2023-05-10T05:27:33;13.30;99.90
10980;DHT22;5543;51.734;8.744;2023-05-10T05:30:01;13.30;99.90
10980;DHT22;5543;51.734;8.744;2023-05-10T05:32:29;13.30;99.90
10980;DHT22;5543;51.734;8.744;2023-05-10T05:34:59;13.30;99.90
10980;DHT22;5543;51.734;8.744;2023-05-10T05:37:27;13.10;99.90
10980;DHT22;5543;51.734;8.744;2023-05-10T05:39:55;13.30;99.90
10980;DHT22;5543;51.734;8.744;2023-05-10T05:42:23;13.40;99.90
10980;DHT22;5543;51.734;8.744;2023-05-10T05:44:51;13.40;99.90
10980;DHT22;5543;51.734;8.744;2023-05-10T05:47:19;13.40;99.90
10980;DHT22;5543;51.734;8.744;2023-05-10T05:49:47;13.30;99.90
10980;DHT22;5543;51.734;8.744;2023-05-10T05:52:17;13.40;99.90
10980;DHT22;5543;51.734;8.744;2023-05-10T05:54:45;13.40;99.90
10980;DHT22;5543;51.734;8.744;2023-05-10T05:57:13;13.40;99.90
10980;DHT22;5543;51.734;8.744;2023-05-10T05:59:41;13.20;99.90
10980;DHT22;5543;51.734;8.744;2023-05-10T06:02:10;13.30;99.90
10980;DHT22;5543;51.734;8.744;2023-05-10T06:04:38;13.30;99.90
10980;DHT22;5543;51.734;8.744;2023-05-10T06:07:10;13.20;99.90
10980;DHT22;5543;51.734;8.744;2023-05-10T06:09:39;13.20;99.90
10980;DHT22;5543;51.734;8.744;2023-05-10T06:12:08;13.20;99.90
10980;DHT22;5543;51.734;8.744;2023-05-10T06:14:36;13.20;99.90
10980;DHT22;5543;51.734;8.744;2023-05-10T06:17:04;13.20;99.90
10980;DHT22;5543;51.734;8.744;2023-05-10T06:19:33;13.20;99.90
10980;DHT22;5543;51.734;8.744;2023-05-10T06:22:01;13.20;99.90
10980;DHT22;5543;51.734;8.744;2023-05-10T06:24:30;13.20;99.90
10980;DHT22;5543;51.734;8.744;2023-05-10T06:26:59;13.20;99.90
10980;DHT22;5543;51.734;8.744;2023-05-10T06:29:28;13.30;99.90
10980;DHT22;5543;51.734;8.744;2023-05-10T06:31:56;13.30;99.90
10980;DHT22;5543;51.734;8.744;2023-05-10T06:34:25;13.40;99.90
10980;DHT22;5543;51.734;8.744;2023-05-10T06:36:53;13.40;99.90
10980;DHT22;5543;51.734;8.744;2023-05-10T06:39:21;13.40;99.90
10980;DHT22;5543;51.734;8.744;2023-05-10T06:41:50;13.50;99.90
10980;DHT22;5543;51.734;8.744;2023-05-10T06:44:20;13.60;99.90
10980;DHT22;5543;51.734;8.744;2023-05-10T06:46:48;13.60;99.90
10980;DHT22;5543;51.734;8.744;2023-05-10T06:49:17;13.70;99.90
10980;DHT22;5543;51.734;8.744;2023-05-10T06:51:45;13.70;99.90
10980;DHT22;5543;51.734;8.744;2023-05-10T06:54:14;13.70;99.90
10980;DHT22;5543;51.734;8.744;2023-05-10T06:56:43;13.80;99.90
10980;DHT22;5543;51.734;8.744;2023-05-10T06:59:11;13.90;99.90
10980;DHT22;5543;51.734;8.744;2023-05-10T07:01:41;14.00;99.90
10980;DHT22;5543;51.734;8.744;2023-05-10T07:04:10;14.00;99.90
10980;DHT22;5543;51.734;8.744;2023-05-10T07:06:38;14.10;99.90
10980;DHT22;5543;51.734;8.744;2023-05-10T07:09:06;13.80;99.90
10980;DHT22;5543;51.734;8.744;2023-05-10T07:11:34;14.10;99.90
10980;DHT22;5543;51.734;8.744;2023-05-10T07:14:04;14.20;99.90
10980;DHT22;5543;51.734;8.744;2023-05-10T07:16:32;14.10;99.90
10980;DHT22;5543;51.734;8.744;2023-05-10T07:19:02;14.20;99.90
10980;DHT22;5543;51.734;8.744;2023-05-10T07:21:32;14.20;99.90
10980;DHT22;5543;51.734;8.744;2023-05-10T07:24:00;14.20;99.90
10980;DHT22;5543;51.734;8.744;2023-05-10T07:26:28;14.30;99.90
10980;DHT22;5543;51.734;8.744;2023-05-10T07:28:56;14.40;99.90
10980;DHT22;5543;51.734;8.744;2023-05-10T07:31:25;14.40;99.90
10980;DHT22;5543;51.734;8.744;2023-05-10T07:33:53;14.20;99.90
10980;DHT22;5543;51.734;8.744;2023-05-10T07:36:22;14.60;99.90
10980;DHT22;5543;51.734;8.744;2023-05-10T07:38:51;14.60;99.90
10980;DHT22;5543;51.734;8.744;2023-05-10T07:41:19;14.70;99.90
10980;DHT22;5543;51.734;8.744;2023-05-10T07:43:48;14.70;99.90
10980;DHT22;5543;51.734;8.744;2023-05-10T07:46:16;14.80;99.90
10980;DHT22;5543;51.734;8.744;2023-05-10T07:48:46;15.00;99.90
10980;DHT22;5543;51.734;8.744;2023-05-10T07:51:14;15.10;99.90
10980;DHT22;5543;51.734;8.744;2023-05-10T07:53:44;15.30;99.90
10980;DHT22;5543;51.734;8.744;2023-05-10T07:56:23;15.40;99.90
10980;DHT22;5543;51.734;8.744;2023-05-10T07:58:54;15.40;99.90
10980;DHT22;5543;51.734;8.744;2023-05-10T08:01:22;15.50;99.90
10980;DHT22;5543;51.734;8.744;2023-05-10T08:03:51;15.60;99.90
10980;DHT22;5543;51.734;8.744;2023-05-10T08:06:20;15.60;99.90
10980;DHT22;5543;51.734;8.744;2023-05-10T08:08:50;15.60;99.90
10980;DHT22;5543;51.734;8.744;2023-05-10T08:11:20;15.50;99.90
10980;DHT22;5543;51.734;8.744;2023-05-10T08:13:50;15.40;99.90
10980;DHT22;5543;51.734;8.744;2023-05-10T08:16:20;15.30;99.90
10980;DHT22;5543;51.734;8.744;2023-05-10T08:18:49;15.30;99.90
10980;DHT22;5543;51.734;8.744;2023-05-10T08:21:17;15.10;99.90
10980;DHT22;5543;51.734;8.744;2023-05-10T08:23:46;14.90;99.90
10980;DHT22;5543;51.734;8.744;2023-05-10T08:26:16;14.80;99.90
10980;DHT22;5543;51.734;8.744;2023-05-10T08:28:44;14.80;99.90
10980;DHT22;5543;51.734;8.744;2023-05-10T08:31:13;14.60;99.90
10980;DHT22;5543;51.734;8.744;2023-05-10T08:33:41;14.50;99.90
10980;DHT22;5543;51.734;8.744;2023-05-10T08:36:10;14.80;99.90
10980;DHT22;5543;51.734;8.744;2023-05-10T08:38:41;15.00;99.90
10980;DHT22;5543;51.734;8.744;2023-05-10T08:41:10;15.20;99.90
10980;DHT22;5543;51.734;8.744;2023-05-10T08:43:41;15.40;99.90
10980;DHT22;5543;51.734;8.744;2023-05-10T08:46:16;15.60;99.90
10980;DHT22;5543;51.734;8.744;2023-05-10T08:48:46;15.80;99.90
10980;DHT22;5543;51.734;8.744;2023-05-10T08:51:17;16.10;99.90
10980;DHT22;5543;51.734;8.744;2023-05-10T08:53:45;16.10;99.90
10980;DHT22;5543;51.734;8.744;2023-05-10T08:56:15;15.90;99.90
10980;DHT22;5543;51.734;8.744;2023-05-10T08:58:46;15.70;99.90
10980;DHT22;5543;51.734;8.744;2023-05-10T09:01:16;15.60;99.90
10980;DHT22;5543;51.734;8.744;2023-05-10T09:03:46;15.60;99.90
10980;DHT22;5543;51.734;8.744;2023-05-10T09:06:15;15.70;99.90
10980;DHT22;5543;51.734;8.744;2023-05-10T09:08:43;15.90;99.90
10980;DHT22;5543;51.734;8.744;2023-05-10T09:11:12;16.20;99.90
10980;DHT22;5543;51.734;8.744;2023-05-10T09:13:41;16.60;99.90
10980;DHT22;5543;51.734;8.744;2023-05-10T09:16:12;16.90;99.90
10980;DHT22;5543;51.734;8.744;2023-05-10T09:18:46;17.10;99.90
10980;DHT22;5543;51.734;8.744;2023-05-10T09:21:14;17.40;99.90
10980;DHT22;5543;51.734;8.744;2023-05-10T09:23:43;17.60;99.90
10980;DHT22;5543;51.734;8.744;2023-05-10T09:26:14;17.70;99.90
10980;DHT22;5543;51.734;8.744;2023-05-10T09:28:56;17.70;99.90
10980;DHT22;5543;51.734;8.744;2023-05-10T09:31:48;17.80;99.90
10980;DHT22;5543;51.734;8.744;2023-05-10T09:34:20;17.90;99.90
10980;DHT22;5543;51.734;8.744;2023-05-10T09:36:53;18.10;99.90
10980;DHT22;5543;51.734;8.744;2023-05-10T09:39:30;18.30;99.90
10980;DHT22;5543;51.734;8.744;2023-05-10T09:42:02;18.40;99.90
10980;DHT22;5543;51.734;8.744;2023-05-10T09:44:34;18.30;99.90
10980;DHT22;5543;51.734;8.744;2023-05-10T09:47:05;18.40;99.90
10980;DHT22;5543;51.734;8.744;2023-05-10T09:49:33;19.10;99.90
10980;DHT22;5543;51.734;8.744;2023-05-10T09:52:04;19.60;99.90
10980;DHT22;5543;51.734;8.744;2023-05-10T09:54:33;20.10;99.90
10980;DHT22;5543;51.734;8.744;2023-05-10T09:57:02;20.50;99.90
10980;DHT22;5543;51.734;8.744;2023-05-10T09:59:33;21.30;99.90
10980;DHT22;5543;51.734;8.744;2023-05-10T10:02:04;23.10;99.90
10980;DHT22;5543;51.734;8.744;2023-05-10T10:04:39;24.50;99.90
10980;DHT22;5543;51.734;8.744;2023-05-10T10:07:08;25.30;99.30
10980;DHT22;5543;51.734;8.744;2023-05-10T10:09:36;25.30;96.80
10980;DHT22;5543;51.734;8.744;2023-05-10T10:12:05;24.40;98.10
10980;DHT22;5543;51.734;8.744;2023-05-10T10:14:34;24.20;98.50
10980;DHT22;5543;51.734;8.744;2023-05-10T10:17:02;24.30;99.90
10980;DHT22;5543;51.734;8.744;2023-05-10T10:19:36;25.20;96.90
10980;DHT22;5543;51.734;8.744;2023-05-10T10:22:05;25.90;97.10
10980;DHT22;5543;51.734;8.744;2023-05-10T10:24:33;26.40;94.80
10980;DHT22;5543;51.734;8.744;2023-05-10T10:27:08;26.70;95.10
10980;DHT22;5543;51.734;8.744;2023-05-10T10:29:44;26.30;94.70
10980;DHT22;5543;51.734;8.744;2023-05-10T10:32:24;25.90;96.00
10980;DHT22;5543;51.734;8.744;2023-05-10T10:34:55;25.10;95.10
10980;DHT22;5543;51.734;8.744;2023-05-10T10:37:42;24.10;95.90
10980;DHT22;5543;51.734;8.744;2023-05-10T10:40:24;22.90;97.40
10980;DHT22;5543;51.734;8.744;2023-05-10T10:42:53;21.90;98.20
10980;DHT22;5543;51.734;8.744;2023-05-10T10:45:22;20.90;99.90
10980;DHT22;5543;51.734;8.744;2023-05-10T10:48:20;20.10;99.90
10980;DHT22;5543;51.734;8.744;2023-05-10T10:50:57;19.50;99.90
10980;DHT22;5543;51.734;8.744;2023-05-10T10:53:26;19.10;99.90
10980;DHT22;5543;51.734;8.744;2023-05-10T10:56:05;18.90;99.90
10980;DHT22;5543;51.734;8.744;2023-05-10T10:58:37;19.80;99.90
10980;DHT22;5543;51.734;8.744;2023-05-10T11:01:13;22.10;99.90
10980;DHT22;5543;51.734;8.744;2023-05-10T11:04:17;25.00;99.90
10980;DHT22;5543;51.734;8.744;2023-05-10T11:06:48;27.80;96.70
10980;DHT22;5543;51.734;8.744;2023-05-10T11:09:16;29.50;91.80
10980;DHT22;5543;51.734;8.744;2023-05-10T11:11:52;30.80;91.20
10980;DHT22;5543;51.734;8.744;2023-05-10T11:14:22;32.10;84.30
10980;DHT22;5543;51.734;8.744;2023-05-10T11:16:51;32.60;79.20
10980;DHT22;5543;51.734;8.744;2023-05-10T11:19:20;32.70;82.40
10980;DHT22;5543;51.734;8.744;2023-05-10T11:21:51;32.20;80.00
10980;DHT22;5543;51.734;8.744;2023-05-10T11:24:22;31.30;79.60
10980;DHT22;5543;51.734;8.744;2023-05-10T11:26:51;29.40;81.60
10980;DHT22;5543;51.734;8.744;2023-05-10T11:29:19;27.80;85.80
10980;DHT22;5543;51.734;8.744;2023-05-10T11:31:49;26.10;88.60
10980;DHT22;5543;51.734;8.744;2023-05-10T11:34:24;24.50;91.20
10980;DHT22;5543;51.734;8.744;2023-05-10T11:36:55;23.00;94.20
10980;DHT22;5543;51.734;8.744;2023-05-10T11:39:26;22.00;95.50
10980;DHT22;5543;51.734;8.744;2023-05-10T11:41:55;21.30;97.30
10980;DHT22;5543;51.734;8.744;2023-05-10T11:44:29;20.90;99.30
10980;DHT22;5543;51.734;8.744;2023-05-10T11:46:58;20.70;99.90
10980;DHT22;5543;51.734;8.744;2023-05-10T11:49:27;21.70;99.90
10980;DHT22;5543;51.734;8.744;2023-05-10T11:52:05;23.50;99.90
10980;DHT22;5543;51.734;8.744;2023-05-10T11:54:33;25.70;97.20
10980;DHT22;5543;51.734;8.744;2023-05-10T11:57:03;27.50;92.80
10980;DHT22;5543;51.734;8.744;2023-05-10T11:59:31;28.90;91.50
10980;DHT22;5543;51.734;8.744;2023-05-10T12:01:59;30.10;87.50
10980;DHT22;5543;51.734;8.744;2023-05-10T12:04:28;30.90;86.30
10980;DHT22;5543;51.734;8.744;2023-05-10T12:06:57;31.00;86.10
10980;DHT22;5543;51.734;8.744;2023-05-10T12:09:27;30.40;83.80
10980;DHT22;5543;51.734;8.744;2023-05-10T12:12:09;28.90;81.00
10980;DHT22;5543;51.734;8.744;2023-05-10T12:14:37;26.60;85.70
10980;DHT22;5543;51.734;8.744;2023-05-10T12:17:11;24.70;90.10
10980;DHT22;5543;51.734;8.744;2023-05-10T12:19:41;23.30;91.50
10980;DHT22;5543;51.734;8.744;2023-05-10T12:22:10;22.10;93.00
10980;DHT22;5543;51.734;8.744;2023-05-10T12:24:40;21.10;94.70
10980;DHT22;5543;51.734;8.744;2023-05-10T12:27:08;20.30;95.40
10980;DHT22;5543;51.734;8.744;2023-05-10T12:29:37;19.60;97.20
10980;DHT22;5543;51.734;8.744;2023-05-10T12:32:10;19.10;97.10
10980;DHT22;5543;51.734;8.744;2023-05-10T12:34:39;18.60;98.80
10980;DHT22;5543;51.734;8.744;2023-05-10T12:37:08;18.30;99.90
10980;DHT22;5543;51.734;8.744;2023-05-10T12:39:44;18.30;99.90
10980;DHT22;5543;51.734;8.744;2023-05-10T12:42:13;18.50;99.90
10980;DHT22;5543;51.734;8.744;2023-05-10T12:44:41;18.70;99.90
10980;DHT22;5543;51.734;8.744;2023-05-10T12:47:09;19.00;99.90
10980;DHT22;5543;51.734;8.744;2023-05-10T12:49:37;19.20;99.90
10980;DHT22;5543;51.734;8.744;2023-05-10T12:52:06;19.20;99.90
10980;DHT22;5543;51.734;8.744;2023-05-10T12:54:35;19.20;99.90
10980;DHT22;5543;51.734;8.744;2023-05-10T12:57:04;19.00;99.80
10980;DHT22;5543;51.734;8.744;2023-05-10T12:59:33;19.00;99.90
10980;DHT22;5543;51.734;8.744;2023-05-10T13:02:04;19.50;99.90
10980;DHT22;5543;51.734;8.744;2023-05-10T13:04:33;20.20;99.90
10980;DHT22;5543;51.734;8.744;2023-05-10T13:07:02;21.30;99.90
10980;DHT22;5543;51.734;8.744;2023-05-10T13:09:31;22.10;98.50
10980;DHT22;5543;51.734;8.744;2023-05-10T13:12:00;22.50;97.60
10980;DHT22;5543;51.734;8.744;2023-05-10T13:14:31;22.10;96.10
10980;DHT22;5543;51.734;8.744;2023-05-10T13:16:59;21.80;97.60
10980;DHT22;5543;51.734;8.744;2023-05-10T13:19:27;21.50;96.80
10980;DHT22;5543;51.734;8.744;2023-05-10T13:21:55;21.40;96.50
10980;DHT22;5543;51.734;8.744;2023-05-10T13:24:24;21.30;97.00
10980;DHT22;5543;51.734;8.744;2023-05-10T13:26:52;21.30;97.50
10980;DHT22;5543;51.734;8.744;2023-05-10T13:29:21;21.40;98.20
10980;DHT22;5543;51.734;8.744;2023-05-10T13:31:50;21.60;97.50
10980;DHT22;5543;51.734;8.744;2023-05-10T13:34:19;22.00;97.00
10980;DHT22;5543;51.734;8.744;2023-05-10T13:36:48;22.90;96.00
10980;DHT22;5543;51.734;8.744;2023-05-10T13:39:17;23.90;93.30
10980;DHT22;5543;51.734;8.744;2023-05-10T13:41:45;24.10;92.70
10980;DHT22;5543;51.734;8.744;2023-05-10T13:44:14;24.20;92.70
10980;DHT22;5543;51.734;8.744;2023-05-10T13:46:43;23.80;94.30
10980;DHT22;5543;51.734;8.744;2023-05-10T13:49:14;23.70;93.30
10980;DHT22;5543;51.734;8.744;2023-05-10T13:51:43;23.80;95.30
10980;DHT22;5543;51.734;8.744;2023-05-10T13:54:11;23.50;94.10
10980;DHT22;5543;51.734;8.744;2023-05-10T13:56:39;23.20;95.80
10980;DHT22;5543;51.734;8.744;2023-05-10T13:59:08;22.80;96.90
10980;DHT22;5543;51.734;8.744;2023-05-10T14:01:36;22.40;95.50
10980;DHT22;5543;51.734;8.744;2023-05-10T14:04:06;21.90;97.40
10980;DHT22;5543;51.734;8.744;2023-05-10T14:06:39;21.40;97.90
10980;DHT22;5543;51.734;8.744;2023-05-10T14:09:08;20.80;98.10
10980;DHT22;5543;51.734;8.744;2023-05-10T14:11:38;20.10;98.40
10980;DHT22;5543;51.734;8.744;2023-05-10T14:14:10;19.50;98.90
10980;DHT22;5543;51.734;8.744;2023-05-10T14:16:43;18.80;99.90
10980;DHT22;5543;51.734;8.744;2023-05-10T14:19:13;18.30;99.90
10980;DHT22;5543;51.734;8.744;2023-05-10T14:21:44;17.70;99.90
10980;DHT22;5543;51.734;8.744;2023-05-10T14:24:13;17.30;99.90
10980;DHT22;5543;51.734;8.744;2023-05-10T14:26:43;16.70;99.90
10980;DHT22;5543;51.734;8.744;2023-05-10T14:29:12;16.30;99.90
10980;DHT22;5543;51.734;8.744;2023-05-10T14:31:40;15.90;99.90
10980;DHT22;5543;51.734;8.744;2023-05-10T14:34:09;15.70;99.90
10980;DHT22;5543;51.734;8.744;2023-05-10T14:36:38;15.50;99.90
10980;DHT22;5543;51.734;8.744;2023-05-10T14:39:08;15.30;99.90
10980;DHT22;5543;51.734;8.744;2023-05-10T14:41:40;15.20;99.90
10980;DHT22;5543;51.734;8.744;2023-05-10T14:44:10;15.10;99.90
10980;DHT22;5543;51.734;8.744;2023-05-10T14:46:38;15.00;99.90
10980;DHT22;5543;51.734;8.744;2023-05-10T14:49:08;15.00;99.90
10980;DHT22;5543;51.734;8.744;2023-05-10T14:51:39;15.00;99.90
10980;DHT22;5543;51.734;8.744;2023-05-10T14:54:08;15.10;99.90
10980;DHT22;5543;51.734;8.744;2023-05-10T14:56:37;15.00;99.90
10980;DHT22;5543;51.734;8.744;2023-05-10T14:59:05;15.00;99.90
10980;DHT22;5543;51.734;8.744;2023-05-10T15:01:34;15.00;99.90
10980;DHT22;5543;51.734;8.744;2023-05-10T15:04:05;15.00;99.90
10980;DHT22;5543;51.734;8.744;2023-05-10T15:06:34;14.90;99.90
10980;DHT22;5543;51.734;8.744;2023-05-10T15:09:04;14.90;99.90
10980;DHT22;5543;51.734;8.744;2023-05-10T15:11:34;14.90;99.90
10980;DHT22;5543;51.734;8.744;2023-05-10T15:14:03;14.90;99.90
10980;DHT22;5543;51.734;8.744;2023-05-10T15:16:33;15.00;99.90
10980;DHT22;5543;51.734;8.744;2023-05-10T15:19:02;15.00;99.90
10980;DHT22;5543;51.734;8.744;2023-05-10T15:21:31;15.10;99.90
10980;DHT22;5543;51.734;8.744;2023-05-10T15:24:05;15.10;99.90
10980;DHT22;5543;51.734;8.744;2023-05-10T15:26:35;15.20;99.90
10980;DHT22;5543;51.734;8.744;2023-05-10T15:29:04;15.20;99.90
10980;DHT22;5543;51.734;8.744;2023-05-10T15:31:32;15.20;99.90
10980;DHT22;5543;51.734;8.744;2023-05-10T15:34:02;15.30;99.90
10980;DHT22;5543;51.734;8.744;2023-05-10T15:36:32;15.20;99.90
10980;DHT22;5543;51.734;8.744;2023-05-10T15:39:00;15.20;99.90
10980;DHT22;5543;51.734;8.744;2023-05-10T15:41:28;15.30;99.90
10980;DHT22;5543;51.734;8.744;2023-05-10T15:43:58;15.30;99.90
10980;DHT22;5543;51.734;8.744;2023-05-10T15:46:27;15.20;99.90
10980;DHT22;5543;51.734;8.744;2023-05-10T15:48:57;15.10;99.90
10980;DHT22;5543;51.734;8.744;2023-05-10T15:51:26;15.10;99.90
10980;DHT22;5543;51.734;8.744;2023-05-10T15:53:54;15.00;99.90
10980;DHT22;5543;51.734;8.744;2023-05-10T15:56:35;15.00;99.90
10980;DHT22;5543;51.734;8.744;2023-05-10T15:59:08;14.90;99.90
10980;DHT22;5543;51.734;8.744;2023-05-10T16:01:37;14.80;99.90
10980;DHT22;5543;51.734;8.744;2023-05-10T16:04:06;14.70;99.90
10980;DHT22;5543;51.734;8.744;2023-05-10T16:06:35;14.60;99.90
10980;DHT22;5543;51.734;8.744;2023-05-10T16:09:03;14.60;99.90